createdAt,value
2023-04-01T00:01:51.619Z,13.13
2023-04-01T00:04:18.892Z,9.77
2023-04-01T00:06:46.274Z,14.95
2023-04-01T00:09:13.495Z,11.05
2023-04-01T00:11:40.918Z,12.02
2023-04-01T00:14:08.610Z,11.45
2023-04-01T00:16:36.134Z,8.38
2023-04-01T00:19:03.630Z,9.35
2023-04-01T00:21:31.275Z,14.50
2023-04-01T00:23:58.786Z,8.90
2023-04-01T00:26:26.304Z,14.15
2023-04-01T00:28:53.933Z,13.15
2023-04-01T00:31:21.605Z,8.95
2023-04-01T00:33:49.287Z,12.00
2023-04-01T00:36:22.832Z,10.50
2023-04-01T00:38:51.497Z,11.18
2023-04-01T00:41:20.498Z,11.98
2023-04-01T00:43:50.350Z,10.73
2023-04-01T00:46:17.913Z,9.60
2023-04-01T00:48:52.258Z,7.55
2023-04-01T00:51:28.634Z,9.02
2023-04-01T00:53:57.648Z,7.78
2023-04-01T00:57:01.907Z,9.38
2023-04-01T00:59:35.983Z,13.57
2023-04-01T01:02:04.367Z,9.05
2023-04-01T01:04:33.952Z,9.80
2023-04-01T01:07:01.134Z,8.85
2023-04-01T01:09:52.560Z,10.57
2023-04-01T01:12:24.292Z,10.00
2023-04-01T01:15:09.913Z,14.20
2023-04-01T01:18:06.688Z,12.05
2023-04-01T01:20:58.282Z,10.60
2023-04-01T01:24:14.861Z,8.80
2023-04-01T01:26:51.472Z,10.77
2023-04-01T01:29:28.168Z,10.07
2023-04-01T01:32:09.314Z,12.07
2023-04-01T01:35:17.397Z,9.20
2023-04-01T01:37:45.269Z,10.65
2023-04-01T01:40:13.874Z,10.90
2023-04-01T01:42:47.683Z,11.60
2023-04-01T01:45:18.884Z,9.32
2023-04-01T01:47:47.724Z,11.43
2023-04-01T01:50:15.411Z,7.53
2023-04-01T01:52:42.711Z,12.07
2023-04-01T01:55:31.252Z,8.93
2023-04-01T01:58:02.873Z,7.25
2023-04-01T02:00:30.945Z,10.48
2023-04-01T02:03:02.438Z,11.43
2023-04-01T02:05:31.839Z,12.57
2023-04-01T02:08:10.440Z,11.05
2023-04-01T02:10:42.201Z,9.65
2023-04-01T02:13:17.932Z,10.15
2023-04-01T02:15:47.908Z,8.98
2023-04-01T02:18:15.722Z,10.90
2023-04-01T02:20:43.700Z,15.07
2023-04-01T02:23:11.610Z,11.73
2023-04-01T02:25:40.528Z,13.43
2023-04-01T02:28:09.198Z,10.90
2023-04-01T02:30:39.448Z,10.57
2023-04-01T02:33:07.161Z,13.85
2023-04-01T02:35:38.265Z,13.52
2023-04-01T02:38:06.837Z,14.43
2023-04-01T02:41:04.665Z,10.82
2023-04-01T02:43:34.080Z,12.52
2023-04-01T02:46:02.882Z,11.18
2023-04-01T02:48:30.303Z,10.52
2023-04-01T02:50:57.556Z,8.02
2023-04-01T02:53:24.737Z,12.13
2023-04-01T02:55:52.824Z,9.57
2023-04-01T02:58:20.425Z,8.40
2023-04-01T03:00:47.867Z,8.50
2023-04-01T03:03:15.437Z,9.10
2023-04-01T03:05:42.801Z,10.90
2023-04-01T03:08:10.270Z,11.15
2023-04-01T03:10:37.567Z,10.70
2023-04-01T03:13:05.235Z,10.65
2023-04-01T03:15:32.751Z,12.07
2023-04-01T03:18:00.446Z,12.73
2023-04-01T03:20:27.759Z,11.25
2023-04-01T03:22:55.365Z,8.10
2023-04-01T03:25:22.660Z,12.00
2023-04-01T03:27:49.977Z,13.20
2023-04-01T03:30:17.420Z,11.55
2023-04-01T03:32:50.987Z,13.90
2023-04-01T03:35:18.448Z,13.63
2023-04-01T03:37:46.897Z,13.80
2023-04-01T03:40:14.186Z,9.60
2023-04-01T03:42:41.535Z,12.20
2023-04-01T03:45:10.247Z,11.35
2023-04-01T03:47:37.594Z,13.43
2023-04-01T03:50:06.376Z,11.60
2023-04-01T03:52:34.226Z,12.82
2023-04-01T03:55:02.472Z,10.93
2023-04-01T03:57:32.310Z,12.77
2023-04-01T04:00:05.957Z,10.25
2023-04-01T04:02:41.033Z,8.82
2023-04-01T04:05:09.115Z,11.98
2023-04-01T04:07:36.499Z,13.18
2023-04-01T04:12:34.616Z,9.15
2023-04-01T04:15:02.162Z,11.25
2023-04-01T04:17:29.512Z,9.60
2023-04-01T04:19:57.264Z,9.57
2023-04-01T04:22:24.758Z,9.73
2023-04-01T04:24:52.177Z,12.32
2023-04-01T04:27:19.829Z,10.60
2023-04-01T04:30:01.027Z,10.40
2023-04-01T04:32:29.442Z,11.00
2023-04-01T04:34:57.588Z,10.85
2023-04-01T04:37:26.679Z,9.20
2023-04-01T04:39:54.324Z,13.93
2023-04-01T04:42:21.694Z,11.10
2023-04-01T04:44:49.803Z,15.05
2023-04-01T04:47:17.262Z,12.18
2023-04-01T04:49:44.588Z,12.00
2023-04-01T04:52:12.387Z,13.70
2023-04-01T04:54:39.604Z,18.83
2023-04-01T04:57:06.851Z,14.80
2023-04-01T04:59:41.180Z,19.17
2023-04-01T05:02:20.600Z,13.82
2023-04-01T05:04:48.468Z,11.85
2023-04-01T05:07:16.053Z,12.98
2023-04-01T05:09:44.043Z,7.82
2023-04-01T05:12:14.183Z,11.82
2023-04-01T05:14:56.962Z,13.18
2023-04-01T05:17:24.953Z,12.77
2023-04-01T05:19:53.697Z,12.88
2023-04-01T05:22:21.454Z,12.82
2023-04-01T05:24:49.182Z,9.98
2023-04-01T05:27:16.692Z,10.15
2023-04-01T05:29:44.305Z,9.43
2023-04-01T05:32:32.463Z,9.05
2023-04-01T05:34:59.818Z,6.10
2023-04-01T05:37:27.017Z,11.88
2023-04-01T05:39:55.842Z,9.57
2023-04-01T05:42:23.191Z,13.30
2023-04-01T05:44:50.670Z,7.32
2023-04-01T05:47:36.803Z,8.25
2023-04-01T05:50:05.404Z,7.20
2023-04-01T05:52:32.709Z,10.35
2023-04-01T05:55:01.277Z,8.60
2023-04-01T05:57:28.530Z,7.85
2023-04-01T05:59:56.013Z,7.97
2023-04-01T06:02:23.762Z,10.93
2023-04-01T06:04:58.829Z,10.75
2023-04-01T06:07:26.219Z,10.00
2023-04-01T06:09:53.603Z,12.45
2023-04-01T06:12:41.482Z,7.38
2023-04-01T06:15:18.827Z,7.63
2023-04-01T06:18:04.257Z,14.73
2023-04-01T06:20:51.774Z,9.05
2023-04-01T06:23:25.665Z,12.60
2023-04-01T06:26:12.163Z,12.00
2023-04-01T06:28:51.786Z,12.45
2023-04-01T06:31:27.156Z,7.35
2023-04-01T06:34:09.942Z,9.45
2023-04-01T06:36:48.407Z,8.82
2023-04-01T06:39:17.587Z,9.55
2023-04-01T06:42:08.389Z,10.20
2023-04-01T06:45:11.257Z,7.55
2023-04-01T06:48:06.002Z,8.95
2023-04-01T06:51:30.112Z,9.38
2023-04-01T06:54:19.540Z,9.68
2023-04-01T06:57:26.130Z,8.77
2023-04-01T06:59:55.949Z,9.63
2023-04-01T07:02:40.653Z,10.95
2023-04-01T07:05:08.523Z,12.25
2023-04-01T07:07:49.461Z,10.90
2023-04-01T07:10:21.470Z,13.02
2023-04-01T07:12:51.199Z,4.82
2023-04-01T07:15:51.638Z,7.13
2023-04-01T07:18:25.295Z,8.95
2023-04-01T07:20:54.420Z,10.02
2023-04-01T07:23:25.733Z,11.23
2023-04-01T07:26:05.703Z,8.25
2023-04-01T07:28:55.014Z,10.45
2023-04-01T07:32:07.672Z,12.40
2023-04-01T07:37:23.967Z,9.18
2023-04-01T07:40:08.093Z,18.63
2023-04-01T07:42:43.508Z,19.58
2023-04-01T07:45:21.626Z,11.90
2023-04-01T07:47:59.698Z,10.20
2023-04-01T07:50:29.693Z,6.65
2023-04-01T07:53:00.385Z,14.00
2023-04-01T07:55:38.265Z,13.98
2023-04-01T07:58:09.632Z,10.55
2023-04-01T08:00:52.353Z,14.38
2023-04-01T08:03:54.574Z,10.68
2023-04-01T08:06:41.688Z,8.82
2023-04-01T08:09:34.644Z,8.65
2023-04-01T08:12:26.041Z,9.50
2023-04-01T08:15:22.462Z,12.77
2023-04-01T08:18:21.164Z,10.63
2023-04-01T08:20:54.385Z,10.18
2023-04-01T08:23:29.998Z,5.45
2023-04-01T08:26:09.101Z,6.25
2023-04-01T08:28:45.962Z,8.80
2023-04-01T08:31:25.973Z,6.65
2023-04-01T08:33:55.074Z,8.05
2023-04-01T08:36:27.835Z,5.40
2023-04-01T08:39:39.591Z,4.93
2023-04-01T08:42:14.460Z,6.80
2023-04-01T08:45:01.181Z,10.63
2023-04-01T08:47:40.129Z,5.75
2023-04-01T08:50:38.514Z,12.07
2023-04-01T08:53:19.648Z,12.60
2023-04-01T08:55:58.761Z,11.07
2023-04-01T08:58:48.102Z,7.07
2023-04-01T09:01:59.737Z,11.68
2023-04-01T09:05:13.440Z,15.43
2023-04-01T09:08:05.648Z,11.55
2023-04-01T09:10:53.931Z,6.97
2023-04-01T09:14:08.640Z,8.57
2023-04-01T09:17:17.851Z,12.10
2023-04-01T09:20:13.088Z,13.95
2023-04-01T09:23:08.520Z,10.43
2023-04-01T09:25:54.643Z,10.75
2023-04-01T09:28:56.552Z,11.25
2023-04-01T09:31:58.031Z,11.43
2023-04-01T09:34:55.730Z,13.55
2023-04-01T09:37:48.013Z,11.50
2023-04-01T09:40:31.338Z,16.45
2023-04-01T09:43:40.311Z,8.18
2023-04-01T09:46:15.841Z,13.80
2023-04-01T09:48:48.537Z,11.00
2023-04-01T09:51:43.128Z,12.90
2023-04-01T09:54:40.270Z,8.70
2023-04-01T09:57:20.118Z,8.70
2023-04-01T10:00:16.823Z,11.73
2023-04-01T10:03:11.756Z,6.60
2023-04-01T10:06:16.991Z,6.97
2023-04-01T10:09:06.065Z,10.93
2023-04-01T10:12:06.959Z,8.43
2023-04-01T10:14:58.948Z,8.77
2023-04-01T10:17:42.869Z,7.20
2023-04-01T10:20:33.094Z,10.10
2023-04-01T10:23:30.780Z,9.80
2023-04-01T10:26:13.310Z,5.85
2023-04-01T10:28:49.047Z,7.15
2023-04-01T10:32:04.293Z,12.85
2023-04-01T10:34:49.752Z,5.70
2023-04-01T10:37:33.700Z,7.22
2023-04-01T10:40:25.316Z,5.43
2023-04-01T10:43:36.076Z,6.72
2023-04-01T10:46:51.798Z,10.38
2023-04-01T10:49:41.730Z,8.90
2023-04-01T10:52:27.654Z,5.55
2023-04-01T10:56:03.841Z,6.95
2023-04-01T10:59:05.833Z,6.40
2023-04-01T11:02:29.219Z,7.50
2023-04-01T11:05:35.042Z,7.82
2023-04-01T11:08:49.362Z,6.85
2023-04-01T11:11:54.934Z,12.02
2023-04-01T11:14:47.378Z,9.60
2023-04-01T11:17:37.060Z,8.00
2023-04-01T11:20:11.149Z,10.38
2023-04-01T11:22:53.842Z,9.85
2023-04-01T11:25:46.926Z,9.90
2023-04-01T11:28:35.768Z,6.22
2023-04-01T11:31:30.424Z,8.52
2023-04-01T11:34:03.233Z,7.95
2023-04-01T11:36:41.145Z,6.20
2023-04-01T11:45:01.870Z,7.10
2023-04-01T11:47:37.431Z,7.30
2023-04-01T11:50:40.065Z,9.82
2023-04-01T11:53:19.746Z,9.45
2023-04-01T11:55:55.260Z,10.52
2023-04-01T11:58:43.365Z,10.55
2023-04-01T12:01:38.671Z,5.72
2023-04-01T12:04:16.732Z,8.73
2023-04-01T12:06:53.286Z,5.55
2023-04-01T12:09:32.469Z,7.03
2023-04-01T12:12:14.810Z,5.40
2023-04-01T12:15:04.058Z,9.52
2023-04-01T12:17:49.813Z,7.05
2023-04-01T12:20:40.209Z,6.90
2023-04-01T12:25:59.741Z,9.75
2023-04-01T12:28:41.417Z,6.60
2023-04-01T12:31:29.813Z,6.15
2023-04-01T12:34:22.309Z,7.38
2023-04-01T12:37:04.832Z,5.80
2023-04-01T12:40:09.802Z,6.80
2023-04-01T12:42:49.401Z,6.65
2023-04-01T12:45:37.351Z,10.15
2023-04-01T12:48:26.238Z,5.60
2023-04-01T12:51:06.408Z,6.07
2023-04-01T12:54:11.679Z,4.68
2023-04-01T12:56:41.877Z,14.40
2023-04-01T13:02:13.395Z,10.43
2023-04-01T13:04:40.994Z,7.78
2023-04-01T13:07:28.217Z,9.50
2023-04-01T13:10:02.644Z,8.02
2023-04-01T13:13:04.311Z,5.00
2023-04-01T13:15:34.256Z,9.60
2023-04-01T13:20:38.105Z,8.45
2023-04-01T13:23:11.497Z,8.98
2023-04-01T13:26:13.712Z,7.00
2023-04-01T13:28:56.044Z,4.88
2023-04-01T13:31:51.274Z,5.43
2023-04-01T13:34:30.831Z,10.55
2023-04-01T13:37:16.477Z,6.85
2023-04-01T13:40:01.933Z,7.18
2023-04-01T13:42:39.172Z,7.30
2023-04-01T13:45:24.710Z,6.20
2023-04-01T13:48:10.489Z,10.55
2023-04-01T13:50:47.575Z,7.25
2023-04-01T13:53:24.156Z,9.05
2023-04-01T13:56:22.009Z,8.95
2023-04-01T13:59:09.135Z,7.18
2023-04-01T14:01:50.308Z,5.18
2023-04-01T14:04:59.340Z,7.35
2023-04-01T14:07:57.135Z,7.38
2023-04-01T14:10:36.537Z,5.80
2023-04-01T14:13:15.949Z,5.20
2023-04-01T14:15:54.191Z,9.20
2023-04-01T14:18:49.392Z,5.50
2023-04-01T14:21:22.419Z,9.15
2023-04-01T14:24:04.382Z,8.85
2023-04-01T14:26:50.716Z,7.70
2023-04-01T14:29:36.096Z,6.25
2023-04-01T14:32:28.870Z,5.82
2023-04-01T14:35:07.494Z,9.52
2023-04-01T14:37:50.035Z,7.45
2023-04-01T14:40:30.181Z,7.07
2023-04-01T14:43:00.525Z,4.72
2023-04-01T14:45:41.518Z,5.00
2023-04-01T14:48:23.270Z,8.77
2023-04-01T14:50:52.902Z,7.63
2023-04-01T14:53:28.075Z,4.90
2023-04-01T14:56:03.803Z,9.77
2023-04-01T14:58:45.104Z,7.22
2023-04-01T15:01:33.660Z,4.18
2023-04-01T15:04:39.997Z,4.57
2023-04-01T15:07:27.437Z,6.72
2023-04-01T15:10:08.178Z,3.55
2023-04-01T15:12:48.209Z,7.50
2023-04-01T15:15:46.053Z,9.07
2023-04-01T15:18:19.886Z,6.78
2023-04-01T15:20:53.251Z,7.65
2023-04-01T15:23:42.448Z,7.15
2023-04-01T15:26:40.941Z,6.85
2023-04-01T15:29:36.945Z,5.10
2023-04-01T15:32:25.563Z,5.05
2023-04-01T15:35:14.529Z,8.73
2023-04-01T15:38:08.478Z,3.72
2023-04-01T15:40:42.860Z,4.22
2023-04-01T15:43:40.808Z,5.97
2023-04-01T15:46:22.405Z,7.13
2023-04-01T15:49:25.946Z,5.28
2023-04-01T15:52:05.097Z,5.40
2023-04-01T15:54:50.483Z,6.80
2023-04-01T15:57:34.803Z,4.18
2023-04-01T16:00:11.982Z,7.40
2023-04-01T16:02:47.561Z,5.45
2023-04-01T16:05:36.771Z,2.17
2023-04-01T16:08:19.122Z,5.20
2023-04-01T16:10:58.749Z,4.60
2023-04-01T16:13:54.075Z,4.57
2023-04-01T16:16:39.772Z,5.88
2023-04-01T16:19:25.471Z,4.15
2023-04-01T16:22:01.969Z,3.85
2023-04-01T16:24:42.357Z,3.80
2023-04-01T16:27:25.951Z,5.82
2023-04-01T16:30:00.026Z,3.83
2023-04-01T16:32:51.635Z,2.83
2023-04-01T16:35:30.905Z,2.95
2023-04-01T16:38:05.610Z,6.67
2023-04-01T16:40:38.895Z,3.15
2023-04-01T16:43:21.253Z,4.03
2023-04-01T16:46:07.528Z,4.38
2023-04-01T16:48:53.863Z,3.03
2023-04-01T16:51:22.344Z,4.70
2023-04-01T16:54:13.754Z,5.68
2023-04-01T16:56:46.728Z,5.75
2023-04-01T16:59:23.356Z,3.97
2023-04-01T17:02:03.556Z,4.00
2023-04-01T17:07:08.767Z,5.00
2023-04-01T17:09:57.389Z,5.28
2023-04-01T17:12:57.091Z,4.43
2023-04-01T17:15:39.059Z,4.88
2023-04-01T17:18:28.482Z,6.60
2023-04-01T17:21:01.508Z,9.85
2023-04-01T17:23:50.865Z,5.05
2023-04-01T17:26:26.929Z,5.22
2023-04-01T17:29:16.189Z,5.15
2023-04-01T17:32:03.819Z,4.93
2023-04-01T17:34:37.466Z,6.25
2023-04-01T17:37:23.083Z,4.53
2023-04-01T17:40:21.804Z,6.00
2023-04-01T17:43:03.430Z,9.00
2023-04-01T17:45:42.720Z,5.85
2023-04-01T17:48:31.254Z,6.93
2023-04-01T17:51:17.080Z,11.63
2023-04-01T17:54:07.232Z,9.63
2023-04-01T17:59:29.072Z,8.15
2023-04-01T18:02:04.944Z,6.90
2023-04-01T18:04:47.513Z,6.82
2023-04-01T18:07:30.472Z,8.45
2023-04-01T18:10:11.731Z,8.88
2023-04-01T18:12:58.089Z,6.65
2023-04-01T18:15:34.087Z,11.40
2023-04-01T18:18:19.383Z,12.20
2023-04-01T18:21:04.344Z,9.98
2023-04-01T18:23:46.611Z,13.80
2023-04-01T18:26:28.296Z,13.10
2023-04-01T18:29:19.086Z,9.02
2023-04-01T18:31:53.061Z,14.40
2023-04-01T18:34:39.246Z,13.38
2023-04-01T18:37:45.432Z,12.70
2023-04-01T18:40:31.400Z,11.48
2023-04-01T18:43:16.157Z,12.32
2023-04-01T18:45:59.299Z,9.93
2023-04-01T18:48:40.392Z,15.45
2023-04-01T18:51:21.574Z,22.83
2023-04-01T18:54:01.297Z,16.15
2023-04-01T18:56:39.744Z,12.88
2023-04-01T18:59:20.196Z,12.07
2023-04-01T19:01:58.397Z,11.43
2023-04-01T19:04:37.190Z,10.63
2023-04-01T19:07:42.328Z,10.30
2023-04-01T19:10:15.412Z,9.30
2023-04-01T19:13:15.526Z,13.63
2023-04-01T19:16:08.562Z,10.38
2023-04-01T19:19:15.859Z,10.07
2023-04-01T19:21:47.992Z,10.43
2023-04-01T19:24:38.334Z,10.50
2023-04-01T19:27:12.390Z,9.43
2023-04-01T19:30:08.791Z,7.47
2023-04-01T19:32:48.224Z,11.65
2023-04-01T19:35:33.587Z,11.60
2023-04-01T19:38:28.619Z,18.52
2023-04-01T19:41:01.682Z,10.88
2023-04-01T19:43:31.853Z,10.82
2023-04-01T19:48:50.758Z,11.98
2023-04-01T19:51:29.836Z,11.88
2023-04-01T19:54:03.949Z,8.70
2023-04-01T19:56:53.704Z,11.20
2023-04-01T19:59:30.803Z,9.10
2023-04-01T20:02:12.141Z,12.05
2023-04-01T20:04:52.076Z,10.60
2023-04-01T20:07:22.361Z,11.93
2023-04-01T20:10:07.583Z,7.18
2023-04-01T20:12:53.532Z,6.18
2023-04-01T20:15:32.644Z,9.25
2023-04-01T20:18:02.546Z,13.73
2023-04-01T20:20:31.090Z,12.52
2023-04-01T20:23:07.630Z,12.07
2023-04-01T20:25:43.036Z,12.80
2023-04-01T20:28:35.054Z,10.90
2023-04-01T20:31:16.786Z,11.25
2023-04-01T20:34:16.879Z,8.25
2023-04-01T20:37:03.606Z,10.82
2023-04-01T20:39:45.054Z,9.07
2023-04-01T20:44:49.299Z,9.43
2023-04-01T20:47:19.472Z,7.53
2023-04-01T20:52:13.688Z,12.68
2023-04-01T20:54:46.753Z,12.02
2023-04-01T20:57:18.317Z,10.30
2023-04-01T20:59:55.523Z,11.13
2023-04-01T21:02:43.013Z,12.10
2023-04-01T21:05:11.325Z,10.93
2023-04-01T21:07:46.140Z,11.07
2023-04-01T21:10:45.227Z,11.55
2023-04-01T21:13:28.822Z,13.02
2023-04-01T21:16:11.328Z,15.63
2023-04-01T21:18:57.029Z,12.52
2023-04-01T21:21:39.470Z,13.52
2023-04-01T21:24:45.122Z,11.38
2023-04-01T21:27:31.049Z,10.05
2023-04-01T21:30:30.523Z,16.38
2023-04-01T21:33:27.284Z,10.52
2023-04-01T21:36:13.377Z,12.45
2023-04-01T21:38:59.482Z,16.38
2023-04-01T21:41:44.962Z,12.73
2023-04-01T21:44:14.001Z,10.98
2023-04-01T21:47:09.955Z,13.57
2023-04-01T21:50:00.316Z,10.27
2023-04-01T21:53:01.298Z,17.60
2023-04-01T21:55:59.630Z,12.63
2023-04-01T21:59:01.965Z,9.48
2023-04-01T22:01:50.561Z,11.80
2023-04-01T22:04:35.628Z,15.00
2023-04-01T22:07:22.519Z,14.50
2023-04-01T22:10:15.106Z,15.10
2023-04-01T22:12:56.046Z,11.43
2023-04-01T22:15:41.945Z,13.02
2023-04-01T22:18:17.297Z,12.02
2023-04-01T22:21:06.094Z,14.25
2023-04-01T22:23:45.770Z,13.45
2023-04-01T22:26:33.825Z,14.63
2023-04-01T22:29:16.729Z,12.75
2023-04-01T22:31:53.383Z,16.38
2023-04-01T22:34:34.484Z,15.05
2023-04-01T22:37:04.670Z,12.55
2023-04-01T22:39:57.476Z,15.23
2023-04-01T22:42:45.523Z,16.02
2023-04-01T22:45:23.813Z,17.35
2023-04-01T22:48:13.128Z,14.82
2023-04-01T22:51:19.472Z,15.82
2023-04-01T22:54:07.569Z,16.58
2023-04-01T22:56:51.145Z,20.00
2023-04-01T22:59:33.735Z,13.07
2023-04-01T23:02:08.143Z,15.68
2023-04-01T23:04:40.196Z,12.98
2023-04-01T23:07:50.232Z,16.02
2023-04-01T23:10:26.377Z,15.43
2023-04-01T23:12:56.253Z,13.50
2023-04-01T23:15:23.994Z,14.57
2023-04-01T23:18:01.687Z,15.57
2023-04-01T23:20:41.357Z,12.88
2023-04-01T23:23:27.189Z,14.10
2023-04-01T23:26:07.407Z,12.85
2023-04-01T23:28:37.641Z,10.55
2023-04-01T23:33:32.632Z,13.48
2023-04-01T23:36:11.879Z,14.15
2023-04-01T23:38:43.883Z,13.53
2023-04-01T23:41:21.301Z,11.32
2023-04-01T23:44:25.906Z,12.10
2023-04-01T23:46:53.941Z,13.75
2023-04-01T23:49:31.796Z,13.85
2023-04-01T23:52:01.303Z,14.00
2023-04-01T23:54:34.910Z,10.02
2023-04-01T23:57:12.154Z,12.02
2023-04-01T23:59:39.858Z,12.68
